sensor_id;sensor_type;location;lat;lon;timestamp;temperature;humidity
2913;DHT22;1466;48.778;9.166;2024-02-14T00:01:52;8.20;97.00
2913;DHT22;1466;48.778;9.166;2024-02-14T00:04:17;8.20;96.80
2913;DHT22;1466;48.778;9.166;2024-02-14T00:06:44;8.20;96.60
2913;DHT22;1466;48.778;9.166;2024-02-14T00:09:10;8.20;96.40
2913;DHT22;1466;48.778;9.166;2024-02-14T00:11:36;8.20;96.30
2913;DHT22;1466;48.778;9.166;2024-02-14T00:14:02;8.10;96.10
2913;DHT22;1466;48.778;9.166;2024-02-14T00:16:28;8.20;96.20
2913;DHT22;1466;48.778;9.166;2024-02-14T00:18:57;8.20;96.10
2913;DHT22;1466;48.778;9.166;2024-02-14T00:21:23;8.20;96.20
2913;DHT22;1466;48.778;9.166;2024-02-14T00:23:49;8.20;95.80
2913;DHT22;1466;48.778;9.166;2024-02-14T00:26:15;8.20;95.90
2913;DHT22;1466;48.778;9.166;2024-02-14T00:28:41;8.20;95.80
2913;DHT22;1466;48.778;9.166;2024-02-14T00:31:06;8.20;95.80
2913;DHT22;1466;48.778;9.166;2024-02-14T00:33:32;8.10;95.70
2913;DHT22;1466;48.778;9.166;2024-02-14T00:35:57;8.10;95.90
2913;DHT22;1466;48.778;9.166;2024-02-14T00:38:23;8.20;95.90
2913;DHT22;1466;48.778;9.166;2024-02-14T00:40:48;8.20;95.80
2913;DHT22;1466;48.778;9.166;2024-02-14T00:43:14;8.30;95.90
2913;DHT22;1466;48.778;9.166;2024-02-14T00:45:39;8.30;95.70
2913;DHT22;1466;48.778;9.166;2024-02-14T00:48:05;8.30;95.60
2913;DHT22;1466;48.778;9.166;2024-02-14T00:50:32;8.40;95.70
2913;DHT22;1466;48.778;9.166;2024-02-14T00:52:59;8.40;95.70
2913;DHT22;1466;48.778;9.166;2024-02-14T00:55:24;8.40;95.70
2913;DHT22;1466;48.778;9.166;2024-02-14T00:57:50;8.50;95.70
2913;DHT22;1466;48.778;9.166;2024-02-14T01:00:16;8.50;95.70
2913;DHT22;1466;48.778;9.166;2024-02-14T01:02:42;8.60;95.70
2913;DHT22;1466;48.778;9.166;2024-02-14T01:05:08;8.60;95.60
2913;DHT22;1466;48.778;9.166;2024-02-14T01:07:34;8.60;95.60
2913;DHT22;1466;48.778;9.166;2024-02-14T01:10:00;8.60;95.90
2913;DHT22;1466;48.778;9.166;2024-02-14T01:12:26;8.70;96.10
2913;DHT22;1466;48.778;9.166;2024-02-14T01:14:51;8.70;96.40
2913;DHT22;1466;48.778;9.166;2024-02-14T01:17:17;8.70;96.70
2913;DHT22;1466;48.778;9.166;2024-02-14T01:19:42;8.80;97.10
2913;DHT22;1466;48.778;9.166;2024-02-14T01:22:09;8.70;97.20
2913;DHT22;1466;48.778;9.166;2024-02-14T01:24:35;8.60;97.40
2913;DHT22;1466;48.778;9.166;2024-02-14T01:27:00;8.60;97.70
2913;DHT22;1466;48.778;9.166;2024-02-14T01:29:26;8.60;98.00
2913;DHT22;1466;48.778;9.166;2024-02-14T01:31:52;8.60;98.10
2913;DHT22;1466;48.778;9.166;2024-02-14T01:34:18;8.60;98.20
2913;DHT22;1466;48.778;9.166;2024-02-14T01:36:43;8.70;98.30
2913;DHT22;1466;48.778;9.166;2024-02-14T01:39:09;8.60;98.30
2913;DHT22;1466;48.778;9.166;2024-02-14T01:41:37;8.70;98.50
2913;DHT22;1466;48.778;9.166;2024-02-14T01:44:03;8.70;98.70
2913;DHT22;1466;48.778;9.166;2024-02-14T01:46:29;8.80;98.50
2913;DHT22;1466;48.778;9.166;2024-02-14T01:48:55;8.80;98.60
2913;DHT22;1466;48.778;9.166;2024-02-14T01:51:22;8.90;98.50
2913;DHT22;1466;48.778;9.166;2024-02-14T01:53:50;8.90;98.40
2913;DHT22;1466;48.778;9.166;2024-02-14T01:56:16;8.80;98.50
2913;DHT22;1466;48.778;9.166;2024-02-14T01:58:42;8.80;98.60
2913;DHT22;1466;48.778;9.166;2024-02-14T02:01:08;8.80;98.70
2913;DHT22;1466;48.778;9.166;2024-02-14T02:03:35;8.80;98.80
2913;DHT22;1466;48.778;9.166;2024-02-14T02:06:04;8.90;98.90
2913;DHT22;1466;48.778;9.166;2024-02-14T02:08:30;8.90;98.90
2913;DHT22;1466;48.778;9.166;2024-02-14T02:10:57;8.90;98.70
2913;DHT22;1466;48.778;9.166;2024-02-14T02:13:23;8.90;98.70
2913;DHT22;1466;48.778;9.166;2024-02-14T02:15:49;9.00;98.90
2913;DHT22;1466;48.778;9.166;2024-02-14T02:18:15;9.00;98.90
2913;DHT22;1466;48.778;9.166;2024-02-14T02:20:40;9.00;98.90
2913;DHT22;1466;48.778;9.166;2024-02-14T02:23:10;9.00;98.90
2913;DHT22;1466;48.778;9.166;2024-02-14T02:25:35;9.00;99.00
2913;DHT22;1466;48.778;9.166;2024-02-14T02:28:01;9.10;99.00
2913;DHT22;1466;48.778;9.166;2024-02-14T02:30:26;9.10;99.00
2913;DHT22;1466;48.778;9.166;2024-02-14T02:32:52;9.10;99.00
2913;DHT22;1466;48.778;9.166;2024-02-14T02:35:18;9.10;98.90
2913;DHT22;1466;48.778;9.166;2024-02-14T02:37:46;9.10;98.80
2913;DHT22;1466;48.778;9.166;2024-02-14T02:40:13;9.10;98.90
2913;DHT22;1466;48.778;9.166;2024-02-14T02:42:40;9.10;98.90
2913;DHT22;1466;48.778;9.166;2024-02-14T02:45:05;9.20;98.80
2913;DHT22;1466;48.778;9.166;2024-02-14T02:47:34;9.20;98.80
2913;DHT22;1466;48.778;9.166;2024-02-14T02:50:00;9.20;98.70
2913;DHT22;1466;48.778;9.166;2024-02-14T02:52:27;9.10;98.60
2913;DHT22;1466;48.778;9.166;2024-02-14T02:54:53;9.10;98.70
2913;DHT22;1466;48.778;9.166;2024-02-14T02:57:19;9.20;98.70
2913;DHT22;1466;48.778;9.166;2024-02-14T02:59:45;9.10;98.60
2913;DHT22;1466;48.778;9.166;2024-02-14T03:02:13;9.10;98.60
2913;DHT22;1466;48.778;9.166;2024-02-14T03:04:39;9.10;98.50
2913;DHT22;1466;48.778;9.166;2024-02-14T03:07:05;9.00;98.50
2913;DHT22;1466;48.778;9.166;2024-02-14T03:09:34;9.00;98.50
2913;DHT22;1466;48.778;9.166;2024-02-14T03:12:00;9.10;98.50
2913;DHT22;1466;48.778;9.166;2024-02-14T03:14:29;9.10;98.40
2913;DHT22;1466;48.778;9.166;2024-02-14T03:17:00;9.10;98.40
2913;DHT22;1466;48.778;9.166;2024-02-14T03:19:26;9.00;98.40
2913;DHT22;1466;48.778;9.166;2024-02-14T03:21:53;9.00;98.70
2913;DHT22;1466;48.778;9.166;2024-02-14T03:24:19;9.00;98.40
2913;DHT22;1466;48.778;9.166;2024-02-14T03:26:45;8.90;98.50
2913;DHT22;1466;48.778;9.166;2024-02-14T03:29:10;8.90;98.50
2913;DHT22;1466;48.778;9.166;2024-02-14T03:31:36;9.00;98.70
2913;DHT22;1466;48.778;9.166;2024-02-14T03:34:02;9.00;98.70
2913;DHT22;1466;48.778;9.166;2024-02-14T03:36:28;9.00;98.70
2913;DHT22;1466;48.778;9.166;2024-02-14T03:38:58;9.10;98.60
2913;DHT22;1466;48.778;9.166;2024-02-14T03:41:24;9.10;98.50
2913;DHT22;1466;48.778;9.166;2024-02-14T03:43:50;9.10;98.50
2913;DHT22;1466;48.778;9.166;2024-02-14T03:46:16;9.10;98.60
2913;DHT22;1466;48.778;9.166;2024-02-14T03:48:44;9.10;98.60
2913;DHT22;1466;48.778;9.166;2024-02-14T03:51:13;9.10;98.50
2913;DHT22;1466;48.778;9.166;2024-02-14T03:53:38;9.10;98.50
2913;DHT22;1466;48.778;9.166;2024-02-14T03:56:04;9.10;98.50
2913;DHT22;1466;48.778;9.166;2024-02-14T03:58:30;9.10;98.60
2913;DHT22;1466;48.778;9.166;2024-02-14T04:00:55;9.20;98.60
2913;DHT22;1466;48.778;9.166;2024-02-14T04:03:21;9.20;98.70
2913;DHT22;1466;48.778;9.166;2024-02-14T04:05:47;9.20;98.70
2913;DHT22;1466;48.778;9.166;2024-02-14T04:08:13;9.20;98.70
2913;DHT22;1466;48.778;9.166;2024-02-14T04:10:39;9.40;98.70
2913;DHT22;1466;48.778;9.166;2024-02-14T04:13:05;9.40;98.50
2913;DHT22;1466;48.778;9.166;2024-02-14T04:15:31;9.40;98.40
2913;DHT22;1466;48.778;9.166;2024-02-14T04:17:57;9.30;98.40
2913;DHT22;1466;48.778;9.166;2024-02-14T04:20:23;9.30;98.40
2913;DHT22;1466;48.778;9.166;2024-02-14T04:22:49;9.20;98.40
2913;DHT22;1466;48.778;9.166;2024-02-14T04:25:14;9.10;98.30
2913;DHT22;1466;48.778;9.166;2024-02-14T04:27:40;9.10;98.40
2913;DHT22;1466;48.778;9.166;2024-02-14T04:30:06;9.00;98.30
2913;DHT22;1466;48.778;9.166;2024-02-14T04:32:32;9.00;98.40
2913;DHT22;1466;48.778;9.166;2024-02-14T04:34:58;9.00;98.40
2913;DHT22;1466;48.778;9.166;2024-02-14T04:37:24;9.00;98.30
2913;DHT22;1466;48.778;9.166;2024-02-14T04:39:50;9.00;98.30
2913;DHT22;1466;48.778;9.166;2024-02-14T04:42:15;9.00;98.20
2913;DHT22;1466;48.778;9.166;2024-02-14T04:44:41;9.10;98.20
2913;DHT22;1466;48.778;9.166;2024-02-14T04:47:07;9.10;98.20
2913;DHT22;1466;48.778;9.166;2024-02-14T04:49:35;9.20;98.20
2913;DHT22;1466;48.778;9.166;2024-02-14T04:52:00;9.30;98.10
2913;DHT22;1466;48.778;9.166;2024-02-14T04:54:26;9.30;98.10
2913;DHT22;1466;48.778;9.166;2024-02-14T04:56:52;9.40;98.00
2913;DHT22;1466;48.778;9.166;2024-02-14T04:59:18;9.40;97.70
2913;DHT22;1466;48.778;9.166;2024-02-14T05:01:44;9.40;97.60
2913;DHT22;1466;48.778;9.166;2024-02-14T05:04:10;9.40;98.00
2913;DHT22;1466;48.778;9.166;2024-02-14T05:06:38;9.50;97.60
2913;DHT22;1466;48.778;9.166;2024-02-14T05:09:04;9.50;97.30
2913;DHT22;1466;48.778;9.166;2024-02-14T05:11:30;9.50;97.20
2913;DHT22;1466;48.778;9.166;2024-02-14T05:13:56;9.50;97.20
2913;DHT22;1466;48.778;9.166;2024-02-14T05:16:21;9.50;97.10
2913;DHT22;1466;48.778;9.166;2024-02-14T05:18:47;9.50;97.10
2913;DHT22;1466;48.778;9.166;2024-02-14T05:21:13;9.50;97.10
2913;DHT22;1466;48.778;9.166;2024-02-14T05:23:39;9.50;97.00
2913;DHT22;1466;48.778;9.166;2024-02-14T05:26:04;9.50;97.00
2913;DHT22;1466;48.778;9.166;2024-02-14T05:28:30;9.50;97.00
2913;DHT22;1466;48.778;9.166;2024-02-14T05:30:57;9.50;96.90
2913;DHT22;1466;48.778;9.166;2024-02-14T05:33:23;9.50;97.00
2913;DHT22;1466;48.778;9.166;2024-02-14T05:35:52;9.50;96.90
2913;DHT22;1466;48.778;9.166;2024-02-14T05:38:18;9.40;96.80
2913;DHT22;1466;48.778;9.166;2024-02-14T05:40:47;9.40;96.80
2913;DHT22;1466;48.778;9.166;2024-02-14T05:43:13;9.40;96.80
2913;DHT22;1466;48.778;9.166;2024-02-14T05:45:39;9.40;96.70
2913;DHT22;1466;48.778;9.166;2024-02-14T05:48:05;9.30;96.60
2913;DHT22;1466;48.778;9.166;2024-02-14T05:50:31;9.30;96.70
2913;DHT22;1466;48.778;9.166;2024-02-14T05:52:56;9.30;97.10
2913;DHT22;1466;48.778;9.166;2024-02-14T05:55:25;9.40;96.90
2913;DHT22;1466;48.778;9.166;2024-02-14T05:57:51;9.40;96.80
2913;DHT22;1466;48.778;9.166;2024-02-14T06:00:18;9.30;96.70
2913;DHT22;1466;48.778;9.166;2024-02-14T06:02:44;9.30;96.80
2913;DHT22;1466;48.778;9.166;2024-02-14T06:05:10;9.40;96.80
2913;DHT22;1466;48.778;9.166;2024-02-14T06:07:40;9.50;96.70
2913;DHT22;1466;48.778;9.166;2024-02-14T06:10:06;9.50;96.70
2913;DHT22;1466;48.778;9.166;2024-02-14T06:12:33;9.50;96.70
2913;DHT22;1466;48.778;9.166;2024-02-14T06:14:59;9.50;96.80
2913;DHT22;1466;48.778;9.166;2024-02-14T06:17:24;9.60;96.80
2913;DHT22;1466;48.778;9.166;2024-02-14T06:19:52;9.60;96.70
2913;DHT22;1466;48.778;9.166;2024-02-14T06:22:18;9.50;96.50
2913;DHT22;1466;48.778;9.166;2024-02-14T06:24:43;9.50;96.60
2913;DHT22;1466;48.778;9.166;2024-02-14T06:27:09;9.40;96.70
2913;DHT22;1466;48.778;9.166;2024-02-14T06:29:35;9.40;96.80
2913;DHT22;1466;48.778;9.166;2024-02-14T06:32:01;9.40;96.80
2913;DHT22;1466;48.778;9.166;2024-02-14T06:34:26;9.40;96.70
2913;DHT22;1466;48.778;9.166;2024-02-14T06:36:54;9.30;96.80
2913;DHT22;1466;48.778;9.166;2024-02-14T06:39:19;9.30;97.00
2913;DHT22;1466;48.778;9.166;2024-02-14T06:41:46;9.30;97.00
2913;DHT22;1466;48.778;9.166;2024-02-14T06:44:12;9.30;97.10
2913;DHT22;1466;48.778;9.166;2024-02-14T06:46:38;9.40;97.10
2913;DHT22;1466;48.778;9.166;2024-02-14T06:49:04;9.40;96.90
2913;DHT22;1466;48.778;9.166;2024-02-14T06:51:30;9.40;96.80
2913;DHT22;1466;48.778;9.166;2024-02-14T06:53:56;9.50;96.90
2913;DHT22;1466;48.778;9.166;2024-02-14T06:56:22;9.50;96.70
2913;DHT22;1466;48.778;9.166;2024-02-14T06:58:47;9.50;96.70
2913;DHT22;1466;48.778;9.166;2024-02-14T07:01:18;9.50;96.70
2913;DHT22;1466;48.778;9.166;2024-02-14T07:03:50;9.50;96.70
2913;DHT22;1466;48.778;9.166;2024-02-14T07:06:16;9.60;96.80
2913;DHT22;1466;48.778;9.166;2024-02-14T07:08:42;9.60;96.50
2913;DHT22;1466;48.778;9.166;2024-02-14T07:11:10;9.60;96.60
2913;DHT22;1466;48.778;9.166;2024-02-14T07:13:35;9.60;96.60
2913;DHT22;1466;48.778;9.166;2024-02-14T07:16:01;9.60;96.60
2913;DHT22;1466;48.778;9.166;2024-02-14T07:18:26;9.70;96.60
2913;DHT22;1466;48.778;9.166;2024-02-14T07:20:52;9.70;96.60
2913;DHT22;1466;48.778;9.166;2024-02-14T07:23:20;9.80;96.70
2913;DHT22;1466;48.778;9.166;2024-02-14T07:25:46;9.70;97.00
2913;DHT22;1466;48.778;9.166;2024-02-14T07:28:12;9.70;96.60
2913;DHT22;1466;48.778;9.166;2024-02-14T07:30:38;9.80;96.80
2913;DHT22;1466;48.778;9.166;2024-02-14T07:33:06;9.80;96.70
2913;DHT22;1466;48.778;9.166;2024-02-14T07:35:39;9.90;96.70
2913;DHT22;1466;48.778;9.166;2024-02-14T07:38:09;9.90;96.70
2913;DHT22;1466;48.778;9.166;2024-02-14T07:40:35;10.00;96.20
2913;DHT22;1466;48.778;9.166;2024-02-14T07:43:01;10.00;96.20
2913;DHT22;1466;48.778;9.166;2024-02-14T07:45:27;10.10;96.10
2913;DHT22;1466;48.778;9.166;2024-02-14T07:47:53;10.20;96.10
2913;DHT22;1466;48.778;9.166;2024-02-14T07:50:19;10.20;95.90
2913;DHT22;1466;48.778;9.166;2024-02-14T07:52:46;10.20;95.90
2913;DHT22;1466;48.778;9.166;2024-02-14T07:55:12;10.30;95.90
2913;DHT22;1466;48.778;9.166;2024-02-14T07:57:42;10.30;95.90
2913;DHT22;1466;48.778;9.166;2024-02-14T08:00:08;10.30;95.90
2913;DHT22;1466;48.778;9.166;2024-02-14T08:02:34;10.40;95.90
2913;DHT22;1466;48.778;9.166;2024-02-14T08:05:00;10.50;95.90
2913;DHT22;1466;48.778;9.166;2024-02-14T08:07:26;10.50;95.90
2913;DHT22;1466;48.778;9.166;2024-02-14T08:09:52;10.60;95.90
2913;DHT22;1466;48.778;9.166;2024-02-14T08:12:17;10.60;95.80
2913;DHT22;1466;48.778;9.166;2024-02-14T08:14:43;10.60;95.70
2913;DHT22;1466;48.778;9.166;2024-02-14T08:17:08;10.70;95.80
2913;DHT22;1466;48.778;9.166;2024-02-14T08:19:34;10.70;95.80
2913;DHT22;1466;48.778;9.166;2024-02-14T08:22:00;10.80;95.70
2913;DHT22;1466;48.778;9.166;2024-02-14T08:24:26;10.90;95.60
2913;DHT22;1466;48.778;9.166;2024-02-14T08:26:55;10.80;95.50
2913;DHT22;1466;48.778;9.166;2024-02-14T08:29:20;10.80;95.50
2913;DHT22;1466;48.778;9.166;2024-02-14T08:31:46;10.80;95.40
2913;DHT22;1466;48.778;9.166;2024-02-14T08:34:13;10.80;95.40
2913;DHT22;1466;48.778;9.166;2024-02-14T08:36:39;10.90;95.40
2913;DHT22;1466;48.778;9.166;2024-02-14T08:39:07;11.00;95.40
2913;DHT22;1466;48.778;9.166;2024-02-14T08:41:33;11.10;95.40
2913;DHT22;1466;48.778;9.166;2024-02-14T08:43:58;11.20;95.20
2913;DHT22;1466;48.778;9.166;2024-02-14T08:46:24;11.30;95.10
2913;DHT22;1466;48.778;9.166;2024-02-14T08:48:51;11.50;95.10
2913;DHT22;1466;48.778;9.166;2024-02-14T08:51:17;11.60;94.80
2913;DHT22;1466;48.778;9.166;2024-02-14T08:53:45;11.60;94.50
2913;DHT22;1466;48.778;9.166;2024-02-14T08:56:11;11.70;94.50
2913;DHT22;1466;48.778;9.166;2024-02-14T08:58:37;11.70;94.50
2913;DHT22;1466;48.778;9.166;2024-02-14T09:01:02;11.80;94.50
2913;DHT22;1466;48.778;9.166;2024-02-14T09:03:28;11.90;94.50
2913;DHT22;1466;48.778;9.166;2024-02-14T09:05:59;12.00;94.50
2913;DHT22;1466;48.778;9.166;2024-02-14T09:08:25;12.10;94.40
2913;DHT22;1466;48.778;9.166;2024-02-14T09:10:51;12.10;94.30
2913;DHT22;1466;48.778;9.166;2024-02-14T09:13:16;12.10;94.20
2913;DHT22;1466;48.778;9.166;2024-02-14T09:15:43;12.10;94.20
2913;DHT22;1466;48.778;9.166;2024-02-14T09:18:08;12.10;94.30
2913;DHT22;1466;48.778;9.166;2024-02-14T09:20:34;12.10;94.30
2913;DHT22;1466;48.778;9.166;2024-02-14T09:23:00;12.20;94.40
2913;DHT22;1466;48.778;9.166;2024-02-14T09:25:25;12.30;94.40
2913;DHT22;1466;48.778;9.166;2024-02-14T09:27:51;12.30;94.30
2913;DHT22;1466;48.778;9.166;2024-02-14T09:30:17;12.30;94.40
2913;DHT22;1466;48.778;9.166;2024-02-14T09:32:46;12.30;94.30
2913;DHT22;1466;48.778;9.166;2024-02-14T09:35:13;12.30;94.30
2913;DHT22;1466;48.778;9.166;2024-02-14T09:37:38;12.30;94.30
2913;DHT22;1466;48.778;9.166;2024-02-14T09:40:05;12.40;94.40
2913;DHT22;1466;48.778;9.166;2024-02-14T09:42:38;12.50;94.40
2913;DHT22;1466;48.778;9.166;2024-02-14T09:45:09;12.60;94.40
2913;DHT22;1466;48.778;9.166;2024-02-14T09:47:35;12.70;94.30
2913;DHT22;1466;48.778;9.166;2024-02-14T09:50:02;12.80;94.20
2913;DHT22;1466;48.778;9.166;2024-02-14T09:52:32;12.80;94.10
2913;DHT22;1466;48.778;9.166;2024-02-14T09:54:59;12.80;94.10
2913;DHT22;1466;48.778;9.166;2024-02-14T09:57:26;12.80;94.00
2913;DHT22;1466;48.778;9.166;2024-02-14T09:59:53;12.80;94.10
2913;DHT22;1466;48.778;9.166;2024-02-14T10:02:19;12.90;94.10
2913;DHT22;1466;48.778;9.166;2024-02-14T10:04:45;13.00;94.10
2913;DHT22;1466;48.778;9.166;2024-02-14T10:07:11;12.90;94.10
2913;DHT22;1466;48.778;9.166;2024-02-14T10:09:43;13.00;94.20
2913;DHT22;1466;48.778;9.166;2024-02-14T10:12:11;13.10;94.20
2913;DHT22;1466;48.778;9.166;2024-02-14T10:14:37;13.20;94.20
2913;DHT22;1466;48.778;9.166;2024-02-14T10:17:06;13.10;94.30
2913;DHT22;1466;48.778;9.166;2024-02-14T10:19:35;13.20;94.40
2913;DHT22;1466;48.778;9.166;2024-02-14T10:22:01;13.10;94.40
2913;DHT22;1466;48.778;9.166;2024-02-14T10:24:31;13.10;94.60
2913;DHT22;1466;48.778;9.166;2024-02-14T10:26:58;13.10;95.00
2913;DHT22;1466;48.778;9.166;2024-02-14T10:29:24;13.10;95.40
2913;DHT22;1466;48.778;9.166;2024-02-14T10:31:50;13.10;95.90
2913;DHT22;1466;48.778;9.166;2024-02-14T10:34:17;13.20;96.30
2913;DHT22;1466;48.778;9.166;2024-02-14T10:36:43;13.20;96.50
2913;DHT22;1466;48.778;9.166;2024-02-14T10:39:11;13.40;96.60
2913;DHT22;1466;48.778;9.166;2024-02-14T10:41:36;13.70;96.60
2913;DHT22;1466;48.778;9.166;2024-02-14T10:44:03;13.80;96.30
2913;DHT22;1466;48.778;9.166;2024-02-14T10:46:32;13.90;96.30
2913;DHT22;1466;48.778;9.166;2024-02-14T10:49:03;14.10;96.00
2913;DHT22;1466;48.778;9.166;2024-02-14T10:51:31;14.20;95.90
2913;DHT22;1466;48.778;9.166;2024-02-14T10:53:59;14.20;95.90
2913;DHT22;1466;48.778;9.166;2024-02-14T10:56:28;14.30;95.70
2913;DHT22;1466;48.778;9.166;2024-02-14T10:58:56;14.40;95.80
2913;DHT22;1466;48.778;9.166;2024-02-14T11:01:29;14.40;95.80
2913;DHT22;1466;48.778;9.166;2024-02-14T11:03:59;14.50;95.70
2913;DHT22;1466;48.778;9.166;2024-02-14T11:06:25;14.50;95.70
2913;DHT22;1466;48.778;9.166;2024-02-14T11:09:03;14.60;95.80
2913;DHT22;1466;48.778;9.166;2024-02-14T11:11:33;14.60;95.90
2913;DHT22;1466;48.778;9.166;2024-02-14T11:13:59;14.70;95.90
2913;DHT22;1466;48.778;9.166;2024-02-14T11:16:28;14.70;96.10
2913;DHT22;1466;48.778;9.166;2024-02-14T11:19:07;14.60;96.20
2913;DHT22;1466;48.778;9.166;2024-02-14T11:21:40;14.60;96.40
2913;DHT22;1466;48.778;9.166;2024-02-14T11:24:08;14.60;96.60
2913;DHT22;1466;48.778;9.166;2024-02-14T11:26:51;14.50;96.90
2913;DHT22;1466;48.778;9.166;2024-02-14T11:29:17;14.50;97.00
2913;DHT22;1466;48.778;9.166;2024-02-14T11:31:47;14.50;97.20
2913;DHT22;1466;48.778;9.166;2024-02-14T11:34:16;14.40;97.20
2913;DHT22;1466;48.778;9.166;2024-02-14T11:36:43;14.40;97.40
2913;DHT22;1466;48.778;9.166;2024-02-14T11:39:10;14.50;97.50
2913;DHT22;1466;48.778;9.166;2024-02-14T11:41:37;14.40;97.40
2913;DHT22;1466;48.778;9.166;2024-02-14T11:44:04;14.40;97.60
2913;DHT22;1466;48.778;9.166;2024-02-14T11:46:34;14.40;97.70
2913;DHT22;1466;48.778;9.166;2024-02-14T11:49:01;14.40;97.80
2913;DHT22;1466;48.778;9.166;2024-02-14T11:51:32;14.30;97.90
2913;DHT22;1466;48.778;9.166;2024-02-14T11:53:59;14.40;98.00
2913;DHT22;1466;48.778;9.166;2024-02-14T11:56:36;14.40;98.00
2913;DHT22;1466;48.778;9.166;2024-02-14T11:59:03;14.50;97.80
2913;DHT22;1466;48.778;9.166;2024-02-14T12:01:33;14.50;97.80
2913;DHT22;1466;48.778;9.166;2024-02-14T12:04:00;14.50;97.70
2913;DHT22;1466;48.778;9.166;2024-02-14T12:06:28;14.50;97.80
2913;DHT22;1466;48.778;9.166;2024-02-14T12:08:54;14.50;97.80
2913;DHT22;1466;48.778;9.166;2024-02-14T12:11:21;14.50;97.70
2913;DHT22;1466;48.778;9.166;2024-02-14T12:13:50;14.60;97.80
2913;DHT22;1466;48.778;9.166;2024-02-14T12:16:16;14.70;97.80
2913;DHT22;1466;48.778;9.166;2024-02-14T12:18:44;14.90;97.90
2913;DHT22;1466;48.778;9.166;2024-02-14T12:21:10;14.90;97.50
2913;DHT22;1466;48.778;9.166;2024-02-14T12:23:36;15.00;97.40
2913;DHT22;1466;48.778;9.166;2024-02-14T12:26:03;15.00;97.30
2913;DHT22;1466;48.778;9.166;2024-02-14T12:28:30;15.00;97.40
2913;DHT22;1466;48.778;9.166;2024-02-14T12:30:57;15.00;97.30
2913;DHT22;1466;48.778;9.166;2024-02-14T12:33:26;15.00;97.30
2913;DHT22;1466;48.778;9.166;2024-02-14T12:35:57;14.80;97.80
2913;DHT22;1466;48.778;9.166;2024-02-14T12:38:24;14.80;97.70
2913;DHT22;1466;48.778;9.166;2024-02-14T12:40:49;14.80;97.80
2913;DHT22;1466;48.778;9.166;2024-02-14T12:43:16;14.80;97.80
2913;DHT22;1466;48.778;9.166;2024-02-14T12:45:42;14.80;97.60
2913;DHT22;1466;48.778;9.166;2024-02-14T12:48:09;15.00;97.80
2913;DHT22;1466;48.778;9.166;2024-02-14T12:50:35;15.10;97.60
2913;DHT22;1466;48.778;9.166;2024-02-14T12:53:03;15.20;97.60
2913;DHT22;1466;48.778;9.166;2024-02-14T12:55:29;15.30;97.30
2913;DHT22;1466;48.778;9.166;2024-02-14T12:57:55;15.30;97.30
2913;DHT22;1466;48.778;9.166;2024-02-14T13:00:22;15.40;97.30
2913;DHT22;1466;48.778;9.166;2024-02-14T13:02:48;15.50;97.10
2913;DHT22;1466;48.778;9.166;2024-02-14T13:05:14;15.60;97.00
2913;DHT22;1466;48.778;9.166;2024-02-14T13:07:40;15.60;96.90
2913;DHT22;1466;48.778;9.166;2024-02-14T13:10:06;15.70;96.90
2913;DHT22;1466;48.778;9.166;2024-02-14T13:12:35;15.60;96.90
2913;DHT22;1466;48.778;9.166;2024-02-14T13:15:00;15.70;96.90
2913;DHT22;1466;48.778;9.166;2024-02-14T13:17:26;15.70;97.10
2913;DHT22;1466;48.778;9.166;2024-02-14T13:19:52;15.70;96.80
2913;DHT22;1466;48.778;9.166;2024-02-14T13:22:19;15.70;96.80
2913;DHT22;1466;48.778;9.166;2024-02-14T13:24:44;15.80;96.80
2913;DHT22;1466;48.778;9.166;2024-02-14T13:27:10;15.80;96.80
2913;DHT22;1466;48.778;9.166;2024-02-14T13:29:36;15.80;96.70
2913;DHT22;1466;48.778;9.166;2024-02-14T13:32:01;15.80;96.70
2913;DHT22;1466;48.778;9.166;2024-02-14T13:34:28;15.80;96.70
2913;DHT22;1466;48.778;9.166;2024-02-14T13:36:54;15.80;96.80
2913;DHT22;1466;48.778;9.166;2024-02-14T13:39:19;15.80;96.80
2913;DHT22;1466;48.778;9.166;2024-02-14T13:41:45;15.80;96.80
2913;DHT22;1466;48.778;9.166;2024-02-14T13:44:11;15.80;96.80
2913;DHT22;1466;48.778;9.166;2024-02-14T13:46:36;15.90;96.80
2913;DHT22;1466;48.778;9.166;2024-02-14T13:49:03;15.90;96.80
2913;DHT22;1466;48.778;9.166;2024-02-14T13:51:28;15.90;96.80
2913;DHT22;1466;48.778;9.166;2024-02-14T13:53:54;15.90;96.90
2913;DHT22;1466;48.778;9.166;2024-02-14T13:56:21;15.90;96.90
2913;DHT22;1466;48.778;9.166;2024-02-14T13:58:48;15.90;96.90
2913;DHT22;1466;48.778;9.166;2024-02-14T14:01:17;15.90;97.00
2913;DHT22;1466;48.778;9.166;2024-02-14T14:03:45;16.00;96.90
2913;DHT22;1466;48.778;9.166;2024-02-14T14:06:12;16.00;96.90
2913;DHT22;1466;48.778;9.166;2024-02-14T14:08:39;16.00;97.00
2913;DHT22;1466;48.778;9.166;2024-02-14T14:11:05;16.00;97.00
2913;DHT22;1466;48.778;9.166;2024-02-14T14:13:31;15.90;97.00
2913;DHT22;1466;48.778;9.166;2024-02-14T14:16:01;15.90;97.30
2913;DHT22;1466;48.778;9.166;2024-02-14T14:18:29;15.80;97.50
2913;DHT22;1466;48.778;9.166;2024-02-14T14:20:54;15.70;97.70
2913;DHT22;1466;48.778;9.166;2024-02-14T14:23:20;15.60;98.00
2913;DHT22;1466;48.778;9.166;2024-02-14T14:25:45;15.60;98.10
2913;DHT22;1466;48.778;9.166;2024-02-14T14:28:11;15.60;98.20
2913;DHT22;1466;48.778;9.166;2024-02-14T14:30:37;15.60;98.20
2913;DHT22;1466;48.778;9.166;2024-02-14T14:33:03;15.70;98.20
2913;DHT22;1466;48.778;9.166;2024-02-14T14:35:29;15.70;98.20
2913;DHT22;1466;48.778;9.166;2024-02-14T14:37:59;15.60;98.20
2913;DHT22;1466;48.778;9.166;2024-02-14T14:40:28;15.60;98.20
2913;DHT22;1466;48.778;9.166;2024-02-14T14:42:53;15.60;98.30
2913;DHT22;1466;48.778;9.166;2024-02-14T14:45:19;15.60;98.30
2913;DHT22;1466;48.778;9.166;2024-02-14T14:47:45;15.50;98.30
2913;DHT22;1466;48.778;9.166;2024-02-14T14:50:11;15.50;98.30
2913;DHT22;1466;48.778;9.166;2024-02-14T14:52:38;15.50;98.40
2913;DHT22;1466;48.778;9.166;2024-02-14T14:55:05;15.50;98.40
2913;DHT22;1466;48.778;9.166;2024-02-14T14:57:30;15.50;98.40
2913;DHT22;1466;48.778;9.166;2024-02-14T14:59:56;15.60;98.40
2913;DHT22;1466;48.778;9.166;2024-02-14T15:02:22;15.60;98.30
2913;DHT22;1466;48.778;9.166;2024-02-14T15:04:47;15.60;98.30
2913;DHT22;1466;48.778;9.166;2024-02-14T15:07:13;15.70;98.30
2913;DHT22;1466;48.778;9.166;2024-02-14T15:09:40;15.60;98.30
2913;DHT22;1466;48.778;9.166;2024-02-14T15:12:06;15.60;98.40
2913;DHT22;1466;48.778;9.166;2024-02-14T15:14:33;15.60;98.40
2913;DHT22;1466;48.778;9.166;2024-02-14T15:16:58;15.60;98.40
2913;DHT22;1466;48.778;9.166;2024-02-14T15:19:25;15.60;98.40
2913;DHT22;1466;48.778;9.166;2024-02-14T15:21:51;15.60;98.40
2913;DHT22;1466;48.778;9.166;2024-02-14T15:24:16;15.60;98.40
2913;DHT22;1466;48.778;9.166;2024-02-14T15:26:42;15.60;98.40
2913;DHT22;1466;48.778;9.166;2024-02-14T15:29:25;15.60;98.30
2913;DHT22;1466;48.778;9.166;2024-02-14T15:32:09;15.60;98.40
2913;DHT22;1466;48.778;9.166;2024-02-14T15:34:53;15.70;98.40
2913;DHT22;1466;48.778;9.166;2024-02-14T15:37:19;15.70;98.30
2913;DHT22;1466;48.778;9.166;2024-02-14T15:39:45;15.70;98.30
2913;DHT22;1466;48.778;9.166;2024-02-14T15:42:10;15.60;98.30
2913;DHT22;1466;48.778;9.166;2024-02-14T15:44:36;15.70;98.40
2913;DHT22;1466;48.778;9.166;2024-02-14T15:47:02;15.50;98.40
2913;DHT22;1466;48.778;9.166;2024-02-14T15:49:28;15.50;98.50
2913;DHT22;1466;48.778;9.166;2024-02-14T15:51:53;15.50;98.50
2913;DHT22;1466;48.778;9.166;2024-02-14T15:54:19;15.50;98.50
2913;DHT22;1466;48.778;9.166;2024-02-14T15:56:46;15.50;98.60
2913;DHT22;1466;48.778;9.166;2024-02-14T15:59:12;15.50;98.60
2913;DHT22;1466;48.778;9.166;2024-02-14T16:01:41;15.50;98.60
2913;DHT22;1466;48.778;9.166;2024-02-14T16:04:07;15.50;98.60
2913;DHT22;1466;48.778;9.166;2024-02-14T16:06:32;15.50;98.60